createdAt,value
2019-05-03T00:02:25.081Z,10.80
2019-05-03T00:05:02.364Z,10.80
2019-05-03T00:07:32.280Z,10.70
2019-05-03T00:10:02.888Z,10.50
2019-05-03T00:12:33.715Z,10.40
2019-05-03T00:15:16.308Z,10.40
2019-05-03T00:17:46.402Z,10.50
2019-05-03T00:20:16.949Z,10.50
2019-05-03T00:22:47.322Z,10.60
2019-05-03T00:25:16.924Z,10.70
2019-05-03T00:27:46.788Z,10.60
2019-05-03T00:30:16.719Z,10.70
2019-05-03T00:32:46.974Z,10.70
2019-05-03T00:35:22.551Z,10.70
2019-05-03T00:37:57.863Z,10.70
2019-05-03T00:40:34.885Z,10.70
2019-05-03T00:43:04.923Z,10.80
2019-05-03T00:45:35.790Z,10.80
2019-05-03T00:48:05.697Z,10.80
2019-05-03T00:50:37.598Z,10.70
2019-05-03T00:53:08.289Z,10.80
2019-05-03T00:55:38.228Z,10.80
2019-05-03T00:58:11.647Z,10.80
2019-05-03T01:00:42.020Z,10.80
2019-05-03T01:03:13.059Z,10.80
2019-05-03T01:05:43.369Z,10.80
2019-05-03T01:08:22.028Z,10.80
2019-05-03T01:10:55.360Z,10.80
2019-05-03T01:13:25.608Z,10.70
2019-05-03T01:16:08.958Z,10.70
2019-05-03T01:18:38.787Z,10.80
2019-05-03T01:21:08.873Z,10.80
2019-05-03T01:23:39.055Z,10.60
2019-05-03T01:26:08.794Z,10.60
2019-05-03T01:28:42.508Z,10.50
2019-05-03T01:31:17.226Z,10.70
2019-05-03T01:33:52.357Z,10.60
2019-05-03T01:36:24.094Z,10.70
2019-05-03T01:38:54.488Z,10.70
2019-05-03T01:41:25.577Z,10.70
2019-05-03T01:43:55.415Z,10.70
2019-05-03T01:46:25.766Z,10.70
2019-05-03T01:49:05.701Z,10.70
2019-05-03T01:51:53.662Z,10.70
2019-05-03T01:54:24.006Z,10.70
2019-05-03T01:56:58.684Z,10.70
2019-05-03T01:59:25.752Z,10.60
2019-05-03T02:02:13.883Z,10.50
2019-05-03T02:04:48.604Z,10.60
2019-05-03T02:07:19.870Z,10.60
2019-05-03T02:09:51.883Z,10.50
2019-05-03T02:12:22.308Z,10.60
2019-05-03T02:14:52.356Z,10.60
2019-05-03T02:17:22.651Z,10.50
2019-05-03T02:19:52.779Z,10.60
2019-05-03T02:22:24.470Z,10.60
2019-05-03T02:25:01.749Z,10.70
2019-05-03T02:27:32.667Z,10.70
2019-05-03T02:30:07.319Z,10.70
2019-05-03T02:32:39.483Z,10.70
2019-05-03T02:35:10.500Z,10.70
2019-05-03T02:37:43.845Z,10.70
2019-05-03T02:40:20.614Z,10.80
2019-05-03T02:43:17.523Z,10.80
2019-05-03T02:46:06.024Z,10.80
2019-05-03T02:48:57.742Z,10.70
2019-05-03T02:51:31.773Z,10.80
2019-05-03T02:54:09.865Z,10.70
2019-05-03T02:56:41.658Z,10.70
2019-05-03T02:59:11.783Z,10.70
2019-05-03T03:01:43.036Z,10.60
2019-05-03T03:04:15.483Z,10.70
2019-05-03T03:06:45.847Z,10.60
2019-05-03T03:09:18.676Z,10.60
2019-05-03T03:11:50.760Z,10.60
2019-05-03T03:14:22.428Z,10.50
2019-05-03T03:16:55.971Z,10.60
2019-05-03T03:19:30.690Z,10.60
2019-05-03T03:25:25.588Z,10.60
2019-05-03T03:28:00.550Z,10.60
2019-05-03T03:31:09.130Z,10.60
2019-05-03T03:33:47.386Z,10.60
2019-05-03T03:36:50.446Z,10.60
2019-05-03T03:38:55.421Z,10.40
2019-05-03T03:41:31.079Z,10.50
2019-05-03T03:44:05.799Z,10.50
2019-05-03T03:46:36.665Z,10.50
2019-05-03T03:49:08.093Z,10.50
2019-05-03T03:51:40.048Z,10.50
2019-05-03T03:54:16.195Z,10.50
2019-05-03T03:57:02.916Z,10.40
2019-05-03T03:59:27.029Z,10.50
2019-05-03T04:01:57.133Z,10.60
2019-05-03T04:04:26.984Z,10.50
2019-05-03T04:07:01.045Z,10.40
2019-05-03T04:09:28.683Z,10.40
2019-05-03T04:11:58.582Z,10.50
2019-05-03T04:14:42.120Z,10.40
2019-05-03T04:17:59.268Z,10.50
2019-05-03T04:20:35.989Z,10.30
2019-05-03T04:23:10.426Z,10.40
2019-05-03T04:25:51.012Z,10.30
2019-05-03T04:28:25.960Z,10.40
2019-05-03T04:30:56.151Z,10.30
2019-05-03T04:33:27.038Z,10.40
2019-05-03T04:35:57.324Z,10.30
2019-05-03T04:38:30.495Z,10.20
2019-05-03T04:41:10.233Z,10.40
2019-05-03T04:43:41.283Z,10.30
2019-05-03T04:46:20.021Z,10.30
2019-05-03T04:48:51.560Z,10.40
2019-05-03T04:51:21.946Z,10.40
2019-05-03T04:54:10.334Z,10.30
2019-05-03T04:56:40.054Z,10.40
2019-05-03T04:59:09.520Z,10.50
2019-05-03T05:01:39.492Z,10.40
2019-05-03T05:04:09.013Z,10.50
2019-05-03T05:06:38.755Z,10.40
2019-05-03T05:09:08.351Z,10.50
2019-05-03T05:11:38.195Z,10.50
2019-05-03T05:14:07.606Z,10.50
2019-05-03T05:16:39.677Z,10.50
2019-05-03T05:19:10.720Z,10.40
2019-05-03T05:21:44.844Z,10.50
2019-05-03T05:24:15.177Z,10.40
2019-05-03T05:26:51.283Z,10.50
2019-05-03T05:29:25.211Z,10.30
2019-05-03T05:31:55.122Z,10.30
2019-05-03T05:34:24.892Z,10.40
2019-05-03T05:36:55.373Z,10.50
2019-05-03T05:39:25.262Z,10.50
2019-05-03T05:41:55.427Z,10.30
2019-05-03T05:44:24.960Z,10.30
2019-05-03T05:47:14.999Z,10.30
2019-05-03T05:50:09.874Z,10.20
2019-05-03T05:52:40.230Z,10.30
2019-05-03T05:55:27.778Z,10.40
2019-05-03T05:58:05.404Z,10.30
2019-05-03T06:00:44.774Z,10.20
2019-05-03T06:29:46.284Z,9.40
2019-05-03T06:32:34.492Z,9.30
2019-05-03T06:35:08.101Z,9.30
2019-05-03T06:37:54.535Z,9.30
2019-05-03T06:40:27.186Z,9.30
2019-05-03T06:43:29.254Z,9.20
2019-05-03T06:56:45.242Z,9.60
2019-05-03T06:59:21.850Z,9.70
2019-05-03T07:01:58.741Z,9.80
2019-05-03T07:04:34.714Z,9.60
2019-05-03T07:07:37.680Z,9.70
2019-05-03T07:10:30.200Z,9.40
2019-05-03T07:13:00.881Z,9.60
2019-05-03T07:15:30.933Z,9.60
2019-05-03T07:18:00.644Z,9.80
2019-05-03T07:20:32.415Z,9.80
2019-05-03T07:23:02.082Z,9.90
2019-05-03T07:25:34.350Z,9.90
2019-05-03T07:28:04.438Z,9.70
2019-05-03T07:30:35.234Z,9.70
2019-05-03T07:33:09.080Z,9.40
2019-05-03T07:35:38.567Z,9.40
2019-05-03T07:38:09.372Z,9.50
2019-05-03T07:40:38.938Z,9.40
2019-05-03T07:43:09.095Z,9.70
2019-05-03T07:45:39.025Z,9.90
2019-05-03T07:48:09.399Z,9.90
2019-05-03T07:50:39.537Z,9.90
2019-05-03T07:53:09.407Z,9.90
2019-05-03T07:55:56.570Z,9.60
2019-05-03T07:58:26.431Z,9.60
2019-05-03T08:01:06.228Z,9.70
2019-05-03T08:03:29.673Z,9.80
2019-05-03T08:05:59.389Z,9.90
2019-05-03T08:08:28.860Z,10.00
2019-05-03T08:10:59.095Z,10.00
2019-05-03T08:13:28.750Z,10.00
2019-05-03T08:15:58.652Z,9.90
2019-05-03T08:18:28.621Z,10.00
2019-05-03T08:20:59.022Z,10.10
2019-05-03T08:23:30.241Z,10.40
2019-05-03T08:26:00.457Z,10.30
2019-05-03T08:28:32.188Z,10.40
2019-05-03T08:31:15.081Z,10.20
2019-05-03T08:34:16.002Z,10.50
2019-05-03T08:37:06.191Z,10.60
2019-05-03T08:39:35.987Z,10.70
2019-05-03T08:42:15.050Z,10.50
2019-05-03T08:44:45.285Z,10.70
2019-05-03T08:47:15.714Z,11.00
2019-05-03T08:49:46.083Z,10.80
2019-05-03T08:52:17.161Z,10.90
2019-05-03T08:54:47.477Z,11.00
2019-05-03T08:57:17.218Z,10.90
2019-05-03T08:59:46.937Z,11.10
2019-05-03T09:02:18.452Z,11.00
2019-05-03T09:04:48.270Z,11.00
2019-05-03T09:07:17.889Z,11.20
2019-05-03T09:10:01.835Z,11.30
2019-05-03T09:12:49.483Z,11.30
2019-05-03T09:15:21.695Z,11.50
2019-05-03T09:17:50.929Z,11.40
2019-05-03T09:20:20.983Z,11.30
2019-05-03T09:22:50.578Z,11.10
2019-05-03T09:25:21.089Z,11.20
2019-05-03T09:27:51.089Z,11.10
2019-05-03T09:30:21.675Z,11.10
2019-05-03T09:32:51.964Z,11.20
2019-05-03T09:35:32.187Z,11.40
2019-05-03T09:37:55.539Z,11.60
2019-05-03T09:40:29.168Z,11.60
2019-05-03T09:42:58.942Z,11.60
2019-05-03T09:45:29.519Z,11.70
2019-05-03T09:47:59.851Z,11.90
2019-05-03T09:50:29.985Z,12.00
2019-05-03T09:53:01.145Z,11.60
2019-05-03T09:55:37.802Z,11.80
2019-05-03T09:58:07.494Z,11.80
2019-05-03T10:00:37.386Z,11.90
2019-05-03T10:03:06.882Z,12.30
2019-05-03T10:05:36.604Z,12.40
2019-05-03T10:08:06.108Z,12.40
2019-05-03T10:10:54.106Z,12.30
2019-05-03T10:13:26.949Z,12.40
2019-05-03T10:15:55.894Z,12.30
2019-05-03T10:18:25.666Z,12.50
2019-05-03T10:20:56.161Z,12.30
2019-05-03T10:23:39.706Z,12.50
2019-05-03T10:26:10.197Z,12.30
2019-05-03T10:28:47.669Z,12.20
2019-05-03T10:31:17.570Z,12.30
2019-05-03T10:34:05.933Z,12.40
2019-05-03T10:36:36.350Z,12.50
2019-05-03T10:39:06.613Z,12.50
2019-05-03T10:41:36.611Z,12.90
2019-05-03T10:44:07.668Z,12.80
2019-05-03T10:46:37.658Z,13.10
2019-05-03T10:49:07.362Z,13.40
2019-05-03T10:51:41.730Z,13.60
2019-05-03T10:54:11.481Z,13.60
2019-05-03T10:56:49.875Z,13.70
2019-05-03T10:59:21.159Z,13.80
2019-05-03T11:02:10.564Z,13.90
2019-05-03T11:04:43.508Z,14.00
2019-05-03T11:07:12.402Z,13.90
2019-05-03T11:09:49.844Z,14.00
2019-05-03T11:12:14.774Z,14.20
2019-05-03T11:14:45.522Z,14.30
2019-05-03T11:20:36.644Z,14.30
2019-05-03T11:23:07.976Z,13.80
2019-05-03T11:25:37.739Z,13.90
2019-05-03T11:28:16.104Z,13.90
2019-05-03T11:31:35.662Z,13.80
2019-05-03T11:38:34.802Z,13.50
2019-05-03T11:41:06.802Z,13.60
2019-05-03T11:43:37.343Z,13.50
2019-05-03T11:46:08.095Z,13.10
2019-05-03T11:48:38.968Z,13.30
2019-05-03T11:51:09.055Z,13.30
2019-05-03T11:54:59.989Z,13.40
2019-05-03T11:57:35.764Z,13.40
2019-05-03T12:34:31.167Z,14.30
2019-05-03T12:37:31.852Z,14.20
2019-05-03T12:40:10.034Z,13.90
2019-05-03T12:42:42.430Z,14.30
2019-05-03T12:45:18.443Z,14.60
2019-05-03T12:47:56.730Z,15.00
2019-05-03T13:43:41.039Z,14.90
2019-05-03T14:42:30.572Z,14.60
2019-05-03T14:45:52.022Z,14.60
2019-05-03T14:49:11.805Z,14.50
2019-05-03T14:52:28.411Z,14.40
2019-05-03T14:55:37.294Z,14.50
2019-05-03T14:58:20.752Z,14.60
2019-05-03T15:00:57.234Z,14.60
2019-05-03T15:03:27.641Z,14.50
2019-05-03T15:05:58.450Z,14.60
2019-05-03T15:08:28.395Z,14.70
2019-05-03T15:11:01.505Z,14.70
2019-05-03T15:13:31.415Z,14.70
2019-05-03T15:17:21.819Z,14.80
2019-05-03T15:20:08.338Z,14.70
2019-05-03T15:22:46.400Z,14.70
2019-05-03T15:25:12.572Z,14.70
2019-05-03T15:28:09.920Z,14.60
2019-05-03T15:30:35.578Z,14.60
2019-05-03T15:33:18.843Z,14.60
2019-05-03T15:36:19.027Z,14.70
2019-05-03T15:39:10.813Z,14.40
2019-05-03T15:41:44.942Z,14.30
2019-05-03T15:44:34.598Z,14.40
2019-05-03T15:48:04.920Z,14.50
2019-05-03T15:54:20.941Z,14.20
2019-05-03T15:56:51.071Z,14.20
2019-05-03T15:59:33.143Z,14.10
2019-05-03T16:02:05.955Z,14.50
2019-05-03T16:04:42.510Z,14.90
2019-05-03T16:14:10.842Z,14.70
2019-05-03T16:16:40.503Z,14.70
2019-05-03T16:19:10.190Z,14.50
2019-05-03T16:21:39.762Z,14.20
2019-05-03T16:24:10.062Z,14.20
2019-05-03T16:26:59.713Z,14.10
2019-05-03T16:29:29.547Z,13.90
2019-05-03T16:32:05.224Z,13.80
2019-05-03T16:34:35.141Z,13.70
2019-05-03T16:37:05.228Z,13.70
2019-05-03T16:39:35.552Z,13.60
2019-05-03T16:42:08.524Z,13.60
2019-05-03T16:44:38.132Z,13.70
2019-05-03T16:47:07.824Z,13.70
2019-05-03T16:49:37.893Z,13.70
2019-05-03T16:52:09.766Z,13.70
2019-05-03T16:54:45.268Z,13.80
2019-05-03T16:57:17.438Z,13.70
2019-05-03T16:59:48.096Z,13.80
2019-05-03T17:02:35.459Z,13.70
2019-05-03T17:12:45.434Z,13.50
2019-05-03T17:15:47.412Z,13.50
2019-05-03T17:19:05.792Z,13.50
2019-05-03T17:21:51.980Z,13.60
2019-05-03T17:25:17.809Z,13.70
2019-05-03T17:27:44.860Z,13.70
2019-05-03T17:45:01.177Z,13.60
2019-05-03T17:47:42.975Z,13.60
2019-05-03T17:50:14.764Z,13.40
2019-05-03T17:53:15.887Z,13.50
2019-05-03T17:56:25.529Z,13.30
2019-05-03T18:02:46.293Z,13.30
2019-05-03T18:05:37.544Z,13.10
2019-05-03T18:08:50.651Z,13.10
2019-05-03T18:11:34.673Z,13.00
2019-05-03T18:14:27.162Z,12.90
2019-05-03T18:17:05.736Z,12.80
2019-05-03T18:19:48.035Z,12.80
2019-05-03T18:22:33.239Z,12.70
2019-05-03T18:25:14.184Z,12.60
2019-05-03T18:27:47.124Z,12.50
2019-05-03T18:30:39.941Z,12.40
2019-05-03T18:33:15.389Z,12.40
2019-05-03T18:35:54.633Z,12.30
2019-05-03T18:38:25.841Z,12.20
2019-05-03T18:40:56.021Z,12.10
2019-05-03T18:43:41.096Z,12.10
2019-05-03T18:46:33.218Z,12.00
2019-05-03T18:49:09.629Z,12.00
2019-05-03T18:51:44.704Z,11.90
2019-05-03T18:54:24.466Z,11.90
2019-05-03T18:58:17.298Z,11.80
2019-05-03T19:37:15.371Z,11.30
2019-05-03T19:39:48.439Z,11.30
2019-05-03T19:42:19.251Z,11.30
2019-05-03T19:44:52.783Z,11.30
2019-05-03T19:47:25.274Z,11.30
2019-05-03T19:50:52.008Z,11.30
2019-05-03T19:53:49.451Z,11.30
2019-05-03T19:56:41.175Z,11.20
2019-05-03T20:00:17.426Z,11.10
2019-05-03T20:04:06.025Z,10.90
2019-05-03T20:07:22.188Z,11.10
2019-05-03T20:12:53.585Z,10.70
2019-05-03T20:15:24.446Z,10.70
2019-05-03T20:23:47.180Z,10.80
2019-05-03T20:26:30.310Z,10.70
2019-05-03T20:29:25.084Z,10.60
2019-05-03T20:31:50.148Z,10.50
2019-05-03T20:34:20.440Z,10.70
2019-05-03T20:36:51.158Z,10.80
2019-05-03T20:39:22.027Z,10.90
2019-05-03T20:41:54.880Z,10.90
2019-05-03T20:44:35.929Z,11.00
2019-05-03T20:50:19.089Z,10.80
2019-05-03T20:59:51.893Z,10.80
2019-05-03T21:02:25.661Z,10.60
2019-05-03T21:14:04.783Z,10.60
2019-05-03T21:17:14.932Z,10.50
2019-05-03T21:20:16.212Z,10.60
2019-05-03T21:22:50.665Z,10.70
2019-05-03T21:25:30.889Z,10.60
2019-05-03T21:28:00.908Z,10.50
2019-05-03T21:30:32.882Z,10.30
2019-05-03T21:33:05.705Z,10.10
2019-05-03T21:35:41.436Z,9.90
2019-05-03T21:38:08.380Z,10.00
2019-05-03T21:40:37.850Z,10.00
2019-05-03T22:12:39.885Z,10.50
2019-05-03T22:15:20.079Z,10.50
2019-05-03T22:18:00.294Z,10.50
2019-05-03T22:20:45.666Z,10.40
2019-05-03T22:23:36.708Z,10.20
2019-05-03T22:26:07.133Z,10.00
2019-05-03T22:28:37.190Z,10.00
2019-05-03T22:31:07.150Z,10.00
2019-05-03T22:33:37.108Z,10.10
2019-05-03T22:36:08.944Z,10.00
2019-05-03T22:38:45.373Z,10.10
2019-05-03T22:41:19.191Z,10.10
2019-05-03T22:43:54.670Z,10.00
2019-05-03T22:46:28.603Z,10.10
2019-05-03T22:49:01.819Z,10.00
2019-05-03T22:51:40.571Z,9.90
2019-05-03T22:54:15.409Z,9.90
2019-05-03T22:56:45.982Z,10.10
2019-05-03T22:59:16.491Z,10.10
2019-05-03T23:01:54.470Z,10.10
2019-05-03T23:04:25.352Z,10.10
2019-05-03T23:06:57.087Z,10.10
2019-05-03T23:09:27.721Z,10.10
2019-05-03T23:11:58.019Z,10.10
2019-05-03T23:14:28.538Z,10.10
2019-05-03T23:16:58.506Z,10.10
2019-05-03T23:19:36.016Z,10.10
2019-05-03T23:22:20.416Z,10.20
2019-05-03T23:24:50.199Z,10.20
2019-05-03T23:27:19.835Z,10.10
2019-05-03T23:29:49.768Z,10.10
2019-05-03T23:32:19.547Z,9.90
2019-05-03T23:34:48.968Z,9.80
2019-05-03T23:37:18.926Z,9.90
2019-05-03T23:39:49.006Z,9.90
2019-05-03T23:42:19.113Z,9.80
2019-05-03T23:44:48.911Z,9.70
2019-05-03T23:47:57.303Z,9.70
2019-05-03T23:50:27.384Z,9.70
2019-05-03T23:52:57.426Z,9.90
2019-05-03T23:55:53.084Z,9.90
2019-05-03T23:58:25.121Z,9.90
